createdAt,value
2019-03-03T00:01:52.491Z,12.90
2019-03-03T00:04:19.279Z,9.47
2019-03-03T00:06:45.916Z,14.40
2019-03-03T00:09:12.662Z,8.83
2019-03-03T00:11:39.310Z,11.10
2019-03-03T00:14:06.196Z,9.90
2019-03-03T00:16:32.865Z,14.60
2019-03-03T00:18:59.667Z,11.60
2019-03-03T00:21:26.337Z,10.07
2019-03-03T00:23:53.152Z,10.37
2019-03-03T00:26:19.912Z,10.80
2019-03-03T00:28:46.446Z,11.53
2019-03-03T00:31:15.704Z,8.63
2019-03-03T00:33:42.362Z,8.93
2019-03-03T00:36:08.993Z,9.53
2019-03-03T00:38:50.998Z,11.73
2019-03-03T00:41:41.770Z,7.60
2019-03-03T00:44:14.988Z,11.10
2019-03-03T00:47:09.773Z,10.97
2019-03-03T00:50:02.084Z,8.17
2019-03-03T00:52:54.089Z,8.90
2019-03-03T00:55:55.131Z,11.33
2019-03-03T00:58:27.505Z,13.90
2019-03-03T01:01:22.959Z,9.03
2019-03-03T01:03:54.708Z,9.10
2019-03-03T01:06:50.253Z,8.90
2019-03-03T01:09:56.429Z,8.03
2019-03-03T01:12:45.849Z,9.93
2019-03-03T01:15:20.748Z,9.07
2019-03-03T01:17:59.559Z,6.93
2019-03-03T01:20:44.924Z,6.77
2019-03-03T01:23:30.423Z,8.23
2019-03-03T01:25:56.952Z,6.00
2019-03-03T01:28:23.500Z,9.80
2019-03-03T01:30:50.027Z,10.30
2019-03-03T01:33:16.700Z,12.07
2019-03-03T01:35:43.477Z,6.17
2019-03-03T01:38:10.136Z,7.30
2019-03-03T01:40:36.788Z,5.97
2019-03-03T01:43:03.429Z,7.53
2019-03-03T01:45:31.316Z,7.87
2019-03-03T01:47:57.953Z,7.20
2019-03-03T01:50:24.633Z,7.23
2019-03-03T01:52:51.168Z,9.40
2019-03-03T01:55:17.736Z,6.17
2019-03-03T01:57:44.372Z,7.13
2019-03-03T02:00:17.599Z,8.60
2019-03-03T02:02:44.253Z,8.30
2019-03-03T02:05:10.842Z,8.30
2019-03-03T02:07:37.793Z,5.97
2019-03-03T02:10:04.810Z,9.93
2019-03-03T02:12:31.867Z,6.63
2019-03-03T02:14:58.528Z,5.47
2019-03-03T02:17:25.085Z,7.60
2019-03-03T02:19:51.712Z,4.60
2019-03-03T02:22:18.313Z,6.20
2019-03-03T02:24:44.947Z,6.90
2019-03-03T02:27:11.565Z,5.17
2019-03-03T02:29:38.215Z,5.17
2019-03-03T02:32:06.012Z,5.97
2019-03-03T02:34:32.745Z,6.43
2019-03-03T02:36:59.405Z,5.80
2019-03-03T02:39:25.986Z,5.80
2019-03-03T02:41:52.653Z,5.83
2019-03-03T02:44:19.481Z,4.60
2019-03-03T02:46:46.139Z,4.90
2019-03-03T02:49:12.703Z,4.50
2019-03-03T02:51:39.452Z,5.57
2019-03-03T02:54:06.219Z,7.10
2019-03-03T02:56:32.963Z,4.33
2019-03-03T02:58:59.555Z,5.57
2019-03-03T03:01:48.510Z,5.73
2019-03-03T03:04:15.178Z,6.03
2019-03-03T03:07:07.734Z,5.93
2019-03-03T03:10:02.923Z,4.93
2019-03-03T03:12:55.305Z,4.80
2019-03-03T03:15:44.328Z,4.03
2019-03-03T03:18:27.038Z,4.47
2019-03-03T03:21:22.120Z,4.93
2019-03-03T03:23:54.244Z,5.93
2019-03-03T03:26:35.045Z,6.17
2019-03-03T03:29:09.740Z,7.27
2019-03-03T03:31:53.502Z,4.40
2019-03-03T03:34:24.765Z,4.13
2019-03-03T03:37:14.788Z,6.13
2019-03-03T03:40:07.108Z,3.63
2019-03-03T03:43:11.774Z,3.77
2019-03-03T03:45:51.998Z,4.47
2019-03-03T03:48:26.643Z,2.40
2019-03-03T03:51:00.937Z,4.47
2019-03-03T03:53:41.109Z,3.77
2019-03-03T03:56:30.308Z,3.07
2019-03-03T03:59:16.698Z,3.93
2019-03-03T04:02:09.693Z,6.17
2019-03-03T04:04:46.478Z,5.10
2019-03-03T04:07:26.544Z,7.53
2019-03-03T04:10:18.635Z,3.47
2019-03-03T04:12:59.594Z,5.97
2019-03-03T04:15:41.599Z,2.73
2019-03-03T04:18:21.287Z,3.80
2019-03-03T04:21:03.273Z,3.37
2019-03-03T04:23:39.048Z,4.77
2019-03-03T04:26:16.135Z,4.10
2019-03-03T04:29:01.240Z,3.07
2019-03-03T04:31:59.544Z,3.13
2019-03-03T04:34:44.230Z,2.47
2019-03-03T04:37:26.374Z,2.90
2019-03-03T04:40:04.947Z,4.50
2019-03-03T04:42:40.532Z,3.80
2019-03-03T04:45:29.069Z,4.53
2019-03-03T04:48:05.889Z,2.47
2019-03-03T04:51:01.135Z,3.57
2019-03-03T04:53:45.860Z,3.80
2019-03-03T04:56:50.391Z,2.33
2019-03-03T04:59:35.530Z,3.40
2019-03-03T05:02:15.993Z,2.30
2019-03-03T05:04:49.951Z,1.70
2019-03-03T05:07:36.236Z,1.27
2019-03-03T05:10:26.458Z,3.57
2019-03-03T05:13:05.135Z,1.63
2019-03-03T05:16:03.341Z,1.53
2019-03-03T05:18:37.202Z,2.57
2019-03-03T05:21:04.009Z,1.27
2019-03-03T05:23:30.608Z,1.87
2019-03-03T05:25:57.301Z,3.60
2019-03-03T05:28:23.842Z,1.57
2019-03-03T05:30:51.594Z,1.57
2019-03-03T05:33:18.136Z,1.30
2019-03-03T05:35:44.835Z,3.63
2019-03-03T05:38:11.856Z,3.37
2019-03-03T05:40:38.495Z,1.63
2019-03-03T05:43:05.209Z,1.67
2019-03-03T05:45:31.973Z,1.90
2019-03-03T05:47:58.699Z,2.40
2019-03-03T05:50:25.576Z,2.17
2019-03-03T05:52:52.385Z,2.10
2019-03-03T05:55:19.311Z,2.30
2019-03-03T05:57:47.115Z,2.83
2019-03-03T06:00:14.081Z,1.80
2019-03-03T06:02:40.858Z,4.13
2019-03-03T06:05:07.459Z,1.83
2019-03-03T06:07:34.142Z,2.97
2019-03-03T06:10:00.824Z,4.07
2019-03-03T06:12:27.414Z,4.53
2019-03-03T06:14:54.041Z,3.10
2019-03-03T06:17:20.718Z,2.70
2019-03-03T06:19:47.449Z,2.40
2019-03-03T06:22:14.166Z,4.87
2019-03-03T06:24:40.815Z,2.60
2019-03-03T06:27:07.619Z,4.37
2019-03-03T06:29:34.375Z,3.07
2019-03-03T06:32:02.237Z,2.60
2019-03-03T06:34:28.935Z,3.60
2019-03-03T06:36:57.543Z,4.13
2019-03-03T06:39:28.129Z,2.77
2019-03-03T06:41:54.806Z,3.50
2019-03-03T06:44:21.427Z,3.47
2019-03-03T06:46:48.198Z,3.50
2019-03-03T06:49:14.794Z,2.37
2019-03-03T06:51:43.659Z,3.10
2019-03-03T06:54:10.483Z,2.50
2019-03-03T06:56:39.249Z,2.70
2019-03-03T06:59:06.156Z,2.00
2019-03-03T07:01:32.692Z,4.97
2019-03-03T07:03:59.397Z,5.10
2019-03-03T07:06:26.769Z,2.83
2019-03-03T07:08:53.569Z,4.97
2019-03-03T07:11:20.331Z,2.63
2019-03-03T07:13:47.146Z,2.93
2019-03-03T07:16:13.838Z,2.30
2019-03-03T07:18:40.533Z,2.70
2019-03-03T07:21:07.328Z,3.63
2019-03-03T07:23:34.105Z,3.43
2019-03-03T07:26:00.794Z,2.33
2019-03-03T07:28:27.689Z,3.27
2019-03-03T07:30:54.532Z,2.10
2019-03-03T07:33:34.887Z,2.40
2019-03-03T07:36:01.640Z,2.40
2019-03-03T07:38:28.285Z,1.70
2019-03-03T07:40:54.862Z,2.43
2019-03-03T07:43:21.649Z,5.03
2019-03-03T07:45:48.369Z,3.20
2019-03-03T07:48:15.027Z,3.03
2019-03-03T07:50:42.088Z,3.43
2019-03-03T07:53:08.807Z,1.53
2019-03-03T07:55:35.560Z,2.63
2019-03-03T07:58:02.248Z,2.10
2019-03-03T08:00:28.890Z,2.30
2019-03-03T08:02:55.609Z,4.43
2019-03-03T08:05:22.251Z,2.47
2019-03-03T08:07:48.815Z,1.83
2019-03-03T08:10:15.584Z,2.60
2019-03-03T08:12:42.408Z,3.13
2019-03-03T08:15:09.209Z,4.53
2019-03-03T08:17:35.990Z,6.10
2019-03-03T08:20:02.740Z,3.47
2019-03-03T08:22:29.526Z,1.73
2019-03-03T08:24:56.325Z,2.40
2019-03-03T08:27:23.047Z,2.93
2019-03-03T08:29:49.839Z,1.53
2019-03-03T08:32:16.501Z,3.17
2019-03-03T08:34:43.170Z,5.17
2019-03-03T08:37:10.076Z,2.87
2019-03-03T08:39:36.737Z,1.47
2019-03-03T08:42:23.208Z,2.73
2019-03-03T08:44:58.755Z,3.13
2019-03-03T08:47:33.796Z,2.60
2019-03-03T08:50:07.308Z,2.63
2019-03-03T08:52:58.112Z,1.47
2019-03-03T08:55:38.047Z,2.27
2019-03-03T08:58:25.164Z,2.63
2019-03-03T09:01:07.706Z,2.07
2019-03-03T09:04:00.103Z,2.40
2019-03-03T09:06:44.507Z,2.67
2019-03-03T09:09:35.859Z,1.27
2019-03-03T09:12:22.368Z,1.37
2019-03-03T09:15:08.721Z,2.83
2019-03-03T09:17:49.864Z,1.60
2019-03-03T09:20:44.987Z,1.40
2019-03-03T09:23:18.568Z,1.27
2019-03-03T09:26:03.433Z,4.60
2019-03-03T09:28:36.193Z,1.90
2019-03-03T09:31:13.272Z,1.93
2019-03-03T09:33:56.150Z,1.33
2019-03-03T09:36:39.189Z,1.57
2019-03-03T09:39:24.756Z,3.77
2019-03-03T09:42:26.448Z,1.87
2019-03-03T09:45:06.429Z,1.20
2019-03-03T09:48:00.568Z,2.07
2019-03-03T09:50:34.128Z,1.20
2019-03-03T09:53:15.230Z,2.10
2019-03-03T09:56:01.494Z,4.40
2019-03-03T09:58:47.816Z,1.47
2019-03-03T10:01:20.057Z,1.63
2019-03-03T10:03:55.850Z,2.10
2019-03-03T10:06:42.341Z,1.63
2019-03-03T10:09:43.671Z,2.73
2019-03-03T10:12:15.100Z,4.00
2019-03-03T10:14:48.909Z,1.23
2019-03-03T10:17:33.976Z,2.73
2019-03-03T10:20:23.085Z,0.80
2019-03-03T10:23:08.101Z,1.33
2019-03-03T10:26:03.186Z,3.27
2019-03-03T10:28:48.007Z,4.03
2019-03-03T10:31:40.596Z,1.27
2019-03-03T10:34:19.685Z,1.50
2019-03-03T10:37:02.010Z,2.73
2019-03-03T10:39:39.809Z,4.03
2019-03-03T10:42:44.197Z,2.20
2019-03-03T10:45:29.227Z,1.33
2019-03-03T10:48:15.754Z,2.97
2019-03-03T10:50:50.912Z,2.67
2019-03-03T10:53:49.486Z,2.00
2019-03-03T10:56:33.214Z,1.60
2019-03-03T10:59:11.324Z,1.00
2019-03-03T11:02:12.944Z,1.77
2019-03-03T11:05:08.151Z,1.47
2019-03-03T11:07:53.257Z,2.87
2019-03-03T11:10:27.855Z,2.20
2019-03-03T11:13:14.097Z,1.60
2019-03-03T11:16:12.632Z,4.10
2019-03-03T11:18:58.964Z,2.07
2019-03-03T11:21:51.175Z,1.63
2019-03-03T11:24:37.845Z,2.37
2019-03-03T11:27:29.098Z,1.07
2019-03-03T11:30:11.985Z,1.57
2019-03-03T11:33:04.544Z,2.63
2019-03-03T11:35:42.678Z,3.90
2019-03-03T11:38:27.239Z,2.03
2019-03-03T11:41:09.185Z,2.00
2019-03-03T11:43:46.151Z,2.83
2019-03-03T11:46:25.867Z,1.23
2019-03-03T11:49:19.100Z,1.93
2019-03-03T11:52:09.103Z,0.70
2019-03-03T11:54:55.718Z,1.47
2019-03-03T11:57:42.093Z,0.73
2019-03-03T12:00:28.706Z,1.37
2019-03-03T12:03:06.780Z,1.43
2019-03-03T12:05:52.297Z,1.80
2019-03-03T12:08:44.116Z,1.97
2019-03-03T12:11:24.331Z,1.10
2019-03-03T12:14:13.480Z,3.07
2019-03-03T12:16:48.442Z,2.77
2019-03-03T12:19:33.584Z,1.50
2019-03-03T12:22:08.439Z,1.50
2019-03-03T12:24:53.496Z,2.20
2019-03-03T12:27:39.853Z,1.43
2019-03-03T12:30:36.442Z,1.07
2019-03-03T12:33:24.437Z,0.70
2019-03-03T12:36:01.489Z,3.43
2019-03-03T12:41:21.959Z,1.73
2019-03-03T12:44:09.626Z,3.33
2019-03-03T12:47:01.953Z,1.60
2019-03-03T12:49:48.417Z,1.57
2019-03-03T12:52:23.634Z,1.27
2019-03-03T12:55:10.090Z,1.47
2019-03-03T12:57:49.908Z,4.97
2019-03-03T13:00:22.529Z,1.47
2019-03-03T13:03:08.880Z,4.60
2019-03-03T13:05:57.929Z,1.00
2019-03-03T13:08:59.163Z,2.13
2019-03-03T13:11:35.002Z,1.00
2019-03-03T13:14:07.869Z,3.13
2019-03-03T13:17:01.531Z,3.40
2019-03-03T13:19:36.079Z,1.90
2019-03-03T13:22:26.651Z,1.63
2019-03-03T13:25:29.181Z,1.83
2019-03-03T13:28:18.297Z,2.57
2019-03-03T13:30:55.555Z,2.73
2019-03-03T13:33:40.862Z,2.00
2019-03-03T13:36:27.276Z,5.50
2019-03-03T13:39:12.603Z,1.90
2019-03-03T13:41:50.420Z,0.70
2019-03-03T13:44:18.317Z,2.33
2019-03-03T13:46:45.041Z,5.33
2019-03-03T13:49:11.735Z,2.80
2019-03-03T13:51:38.399Z,2.57
2019-03-03T13:54:06.609Z,2.43
2019-03-03T13:56:33.612Z,1.93
2019-03-03T13:59:00.376Z,2.00
2019-03-03T14:01:27.166Z,3.20
2019-03-03T14:03:53.840Z,2.73
2019-03-03T14:06:20.799Z,2.30
2019-03-03T14:08:47.433Z,2.40
2019-03-03T14:11:14.167Z,1.70
2019-03-03T14:13:40.909Z,3.63
2019-03-03T14:16:07.527Z,3.77
2019-03-03T14:18:34.310Z,1.67
2019-03-03T14:21:03.102Z,2.80
2019-03-03T14:23:29.901Z,1.13
2019-03-03T14:25:56.582Z,2.33
2019-03-03T14:28:23.350Z,2.67
2019-03-03T14:30:50.018Z,0.97
2019-03-03T14:33:16.820Z,3.23
2019-03-03T14:35:43.476Z,1.73
2019-03-03T14:38:10.251Z,3.17
2019-03-03T14:40:36.925Z,2.67
2019-03-03T14:43:03.812Z,2.10
2019-03-03T14:45:30.474Z,2.40
2019-03-03T14:47:57.281Z,3.43
2019-03-03T14:50:24.369Z,1.13
2019-03-03T14:52:51.156Z,3.03
2019-03-03T14:55:18.088Z,2.67
2019-03-03T14:57:44.850Z,1.33
2019-03-03T15:00:40.731Z,2.77
2019-03-03T15:03:07.711Z,1.53
2019-03-03T15:05:34.357Z,2.50
2019-03-03T15:08:01.294Z,1.80
2019-03-03T15:10:28.065Z,2.00
2019-03-03T15:12:54.907Z,1.93
2019-03-03T15:15:22.107Z,2.60
2019-03-03T15:17:48.661Z,1.60
2019-03-03T15:20:15.513Z,3.57
2019-03-03T15:22:42.260Z,3.23
2019-03-03T15:25:09.328Z,1.23
2019-03-03T15:27:36.098Z,3.57
2019-03-03T15:30:04.103Z,1.57
2019-03-03T15:32:30.747Z,2.10
2019-03-03T15:34:57.525Z,1.90
2019-03-03T15:37:24.116Z,2.30
2019-03-03T15:39:50.776Z,2.87
2019-03-03T15:42:17.463Z,3.67
2019-03-03T15:44:44.030Z,2.97
2019-03-03T15:47:10.706Z,3.03
2019-03-03T15:49:37.523Z,1.73
2019-03-03T15:52:04.187Z,1.47
2019-03-03T15:54:30.982Z,0.87
2019-03-03T15:56:57.733Z,2.77
2019-03-03T15:59:24.920Z,1.07
2019-03-03T16:01:52.109Z,1.77
2019-03-03T16:04:19.300Z,2.50
2019-03-03T16:06:47.537Z,3.87
2019-03-03T16:09:15.156Z,2.13
2019-03-03T16:11:42.775Z,2.30
2019-03-03T16:14:10.202Z,2.00
2019-03-03T16:16:38.175Z,2.33
2019-03-03T16:19:05.041Z,1.20
2019-03-03T16:21:32.603Z,1.53
2019-03-03T16:23:59.474Z,2.63
2019-03-03T16:26:26.251Z,3.80
2019-03-03T16:28:53.063Z,1.40
2019-03-03T16:31:20.110Z,1.23
2019-03-03T16:33:46.960Z,1.80
2019-03-03T16:36:14.237Z,1.53
2019-03-03T16:38:41.229Z,2.63
2019-03-03T16:41:08.061Z,1.87
2019-03-03T16:43:34.910Z,1.87
2019-03-03T16:46:01.655Z,2.90
2019-03-03T16:48:28.413Z,5.17
2019-03-03T16:50:55.197Z,3.03
2019-03-03T16:53:22.009Z,1.33
2019-03-03T16:55:48.830Z,2.20
2019-03-03T16:58:15.517Z,1.50
2019-03-03T17:00:42.318Z,3.37
2019-03-03T17:03:08.983Z,3.13
2019-03-03T17:05:35.831Z,4.47
2019-03-03T17:08:02.562Z,5.17
2019-03-03T17:10:29.355Z,3.77
2019-03-03T17:12:56.085Z,1.77
2019-03-03T17:15:22.774Z,2.97
2019-03-03T17:17:49.676Z,2.63
2019-03-03T17:20:16.663Z,3.33
2019-03-03T17:22:44.360Z,3.43
2019-03-03T17:25:13.233Z,5.83
2019-03-03T17:27:40.153Z,3.87
2019-03-03T17:30:09.911Z,2.87
2019-03-03T17:32:36.563Z,2.30
2019-03-03T17:35:03.756Z,3.43
2019-03-03T17:37:30.413Z,4.57
2019-03-03T17:39:57.057Z,3.80
2019-03-03T17:42:23.906Z,3.57
2019-03-03T17:44:50.548Z,3.37
2019-03-03T17:47:17.313Z,1.83
2019-03-03T17:49:44.116Z,4.17
2019-03-03T17:52:10.782Z,6.10
2019-03-03T17:54:37.361Z,1.47
2019-03-03T17:57:04.005Z,4.07
2019-03-03T17:59:30.897Z,1.70
2019-03-03T18:01:57.585Z,5.77
2019-03-03T18:04:24.348Z,3.17
2019-03-03T18:06:50.909Z,6.20
2019-03-03T18:09:17.840Z,6.07
2019-03-03T18:11:44.525Z,2.83
2019-03-03T18:14:11.371Z,3.70
2019-03-03T18:16:38.116Z,3.20
2019-03-03T18:19:05.180Z,4.83
2019-03-03T18:21:31.987Z,7.63
2019-03-03T18:23:58.742Z,3.57
2019-03-03T18:26:25.432Z,7.00
2019-03-03T18:28:52.111Z,7.60
2019-03-03T18:31:18.746Z,5.30
2019-03-03T18:33:45.312Z,3.07
2019-03-03T18:36:12.078Z,7.10
2019-03-03T18:38:38.942Z,6.87
2019-03-03T18:41:05.608Z,6.23
2019-03-03T18:43:32.629Z,5.33
2019-03-03T18:45:59.270Z,3.53
2019-03-03T18:48:25.874Z,7.57
2019-03-03T18:50:52.601Z,4.63
2019-03-03T18:53:19.282Z,7.20
2019-03-03T18:55:46.041Z,2.00
2019-03-03T18:58:13.887Z,3.97
2019-03-03T19:00:40.545Z,4.43
2019-03-03T19:03:07.223Z,4.50
2019-03-03T19:05:33.984Z,3.03
2019-03-03T19:08:00.705Z,2.47
2019-03-03T19:10:27.424Z,3.80
2019-03-03T19:12:54.241Z,2.23
2019-03-03T19:15:21.073Z,4.87
2019-03-03T19:17:47.802Z,1.93
2019-03-03T19:20:15.557Z,3.23
2019-03-03T19:22:42.238Z,3.17
2019-03-03T19:25:10.249Z,2.47
2019-03-03T19:27:36.947Z,3.63
2019-03-03T19:30:06.280Z,2.43
2019-03-03T19:32:32.961Z,4.37
2019-03-03T19:34:59.701Z,5.97
2019-03-03T19:37:26.437Z,4.37
2019-03-03T19:39:52.988Z,6.03
2019-03-03T19:42:19.657Z,4.63
2019-03-03T19:44:46.323Z,5.80
2019-03-03T19:47:13.111Z,2.77
2019-03-03T19:49:39.828Z,3.57
2019-03-03T19:52:06.537Z,5.50
2019-03-03T19:54:33.077Z,6.97
2019-03-03T19:56:59.737Z,6.80
2019-03-03T19:59:26.437Z,4.77
2019-03-03T20:01:53.120Z,8.17
2019-03-03T20:04:19.670Z,15.77
2019-03-03T20:06:46.367Z,8.23
2019-03-03T20:09:14.809Z,5.20
2019-03-03T20:11:41.515Z,15.40
2019-03-03T20:14:08.330Z,5.87
2019-03-03T20:16:34.888Z,4.20
2019-03-03T20:19:01.925Z,4.37
2019-03-03T20:21:28.723Z,5.83
2019-03-03T20:23:55.403Z,9.07
2019-03-03T20:26:22.133Z,7.23
2019-03-03T20:28:50.628Z,4.90
2019-03-03T20:31:17.712Z,7.47
2019-03-03T20:33:44.337Z,11.37
2019-03-03T20:36:11.072Z,6.57
2019-03-03T20:38:37.999Z,8.53
2019-03-03T20:41:04.706Z,8.03
2019-03-03T20:43:31.602Z,9.23
2019-03-03T20:45:58.344Z,7.37
2019-03-03T20:48:25.416Z,7.10
2019-03-03T20:50:53.391Z,4.93
2019-03-03T20:53:20.114Z,8.53
2019-03-03T20:55:46.979Z,9.43
2019-03-03T20:58:13.701Z,4.93
2019-03-03T21:00:40.486Z,10.67
2019-03-03T21:03:07.350Z,8.10
2019-03-03T21:05:34.232Z,7.27
2019-03-03T21:08:01.041Z,7.00
2019-03-03T21:10:27.902Z,5.77
2019-03-03T21:12:54.576Z,7.60
2019-03-03T21:15:21.357Z,4.43
2019-03-03T21:17:48.283Z,7.33
2019-03-03T21:20:16.124Z,6.87
2019-03-03T21:22:42.916Z,6.67
2019-03-03T21:25:10.256Z,7.23
2019-03-03T21:27:37.019Z,5.93
2019-03-03T21:30:08.531Z,9.93
2019-03-03T21:32:35.341Z,6.93
2019-03-03T21:35:02.081Z,7.20
2019-03-03T21:37:28.856Z,6.97
2019-03-03T21:39:55.576Z,8.67
2019-03-03T21:42:22.104Z,3.73
2019-03-03T21:44:48.830Z,5.47
2019-03-03T21:47:15.592Z,7.73
2019-03-03T21:49:43.330Z,9.97
2019-03-03T21:52:10.060Z,6.47
2019-03-03T21:54:36.752Z,8.23
2019-03-03T21:57:03.661Z,11.47
2019-03-03T21:59:30.345Z,5.90
2019-03-03T22:01:57.203Z,6.17
2019-03-03T22:04:26.996Z,8.53
2019-03-03T22:06:53.686Z,7.03
2019-03-03T22:09:20.438Z,8.23
2019-03-03T22:11:47.155Z,8.53
2019-03-03T22:14:13.914Z,10.03
2019-03-03T22:16:40.777Z,7.10
2019-03-03T22:19:07.490Z,8.60
2019-03-03T22:21:34.340Z,6.80
2019-03-03T22:24:01.077Z,6.37
2019-03-03T22:26:28.112Z,7.00
2019-03-03T22:28:54.773Z,7.37
2019-03-03T22:31:21.416Z,5.50
2019-03-03T22:33:48.247Z,6.50
2019-03-03T22:36:15.092Z,11.37
2019-03-03T22:38:42.121Z,9.73
2019-03-03T22:41:08.921Z,14.37
2019-03-03T22:43:35.674Z,8.00
2019-03-03T22:46:02.626Z,10.47
2019-03-03T22:48:31.143Z,9.63
2019-03-03T22:50:58.400Z,10.27
2019-03-03T22:53:25.193Z,7.17
2019-03-03T22:55:51.832Z,6.93
2019-03-03T22:58:18.595Z,7.33
2019-03-03T23:00:57.064Z,7.53
2019-03-03T23:03:48.929Z,9.07
2019-03-03T23:06:41.532Z,8.50
2019-03-03T23:09:50.039Z,9.43
2019-03-03T23:12:42.815Z,5.93
2019-03-03T23:15:27.791Z,9.57
2019-03-03T23:18:15.797Z,6.30
2019-03-03T23:21:02.423Z,7.57
2019-03-03T23:24:26.286Z,10.87
2019-03-03T23:26:52.985Z,9.60
2019-03-03T23:29:19.874Z,8.33
2019-03-03T23:31:46.427Z,8.77
2019-03-03T23:34:13.507Z,7.10
2019-03-03T23:36:40.199Z,9.70
2019-03-03T23:39:07.045Z,8.93
2019-03-03T23:41:33.592Z,7.17
2019-03-03T23:44:00.166Z,10.10
2019-03-03T23:46:26.783Z,6.63
2019-03-03T23:48:53.414Z,6.10
2019-03-03T23:51:19.979Z,10.27
2019-03-03T23:53:46.658Z,7.20
2019-03-03T23:56:13.353Z,6.27
2019-03-03T23:58:39.981Z,7.13
